createdAt,value
2023-02-28T00:03:36.385Z,7.35
2023-02-28T00:06:23.666Z,8.48
2023-02-28T00:09:13.514Z,8.38
2023-02-28T00:12:00.639Z,7.88
2023-02-28T00:14:47.837Z,7.82
2023-02-28T00:17:35.127Z,8.88
2023-02-28T00:20:28.124Z,7.93
2023-02-28T00:23:18.241Z,8.80
2023-02-28T00:26:05.840Z,8.68
2023-02-28T00:28:54.020Z,8.13
2023-02-28T00:31:41.212Z,8.80
2023-02-28T00:34:28.292Z,8.25
2023-02-28T00:37:15.474Z,8.20
2023-02-28T00:40:03.400Z,8.75
2023-02-28T00:42:50.472Z,8.07
2023-02-28T00:45:37.606Z,7.38
2023-02-28T00:48:24.743Z,8.73
2023-02-28T00:51:11.989Z,8.10
2023-02-28T00:53:59.073Z,9.05
2023-02-28T00:56:47.112Z,8.38
2023-02-28T00:59:34.207Z,8.30
2023-02-28T01:02:23.434Z,7.63
2023-02-28T01:05:10.595Z,8.63
2023-02-28T01:08:00.123Z,8.07
2023-02-28T01:10:47.280Z,8.60
2023-02-28T01:13:34.339Z,7.72
2023-02-28T01:16:21.468Z,7.60
2023-02-28T01:19:08.617Z,8.30
2023-02-28T01:21:55.780Z,7.97
2023-02-28T01:24:42.899Z,8.07
2023-02-28T01:27:30.127Z,8.57
2023-02-28T01:30:17.438Z,7.78
2023-02-28T01:33:04.610Z,7.68
2023-02-28T01:35:59.748Z,7.53
2023-02-28T01:38:47.983Z,8.05
2023-02-28T01:41:36.105Z,8.27
2023-02-28T01:44:56.859Z,8.30
2023-02-28T01:47:45.041Z,8.10
2023-02-28T01:50:38.630Z,8.95
2023-02-28T01:53:33.615Z,8.52
2023-02-28T01:56:27.705Z,8.20
2023-02-28T01:59:30.967Z,8.82
2023-02-28T02:02:20.387Z,7.93
2023-02-28T02:05:10.530Z,8.80
2023-02-28T02:10:50.373Z,9.77
2023-02-28T02:13:53.828Z,8.80
2023-02-28T02:17:17.282Z,9.65
2023-02-28T02:20:13.458Z,9.15
2023-02-28T02:23:48.381Z,8.82
2023-02-28T02:26:41.271Z,9.10
2023-02-28T02:30:04.318Z,8.50
2023-02-28T02:33:40.574Z,8.65
2023-02-28T02:36:30.062Z,8.25
2023-02-28T02:39:51.251Z,9.10
2023-02-28T02:42:51.858Z,9.35
2023-02-28T02:46:02.829Z,9.45
2023-02-28T02:48:54.267Z,9.57
2023-02-28T02:51:42.861Z,9.18
2023-02-28T02:54:35.828Z,8.57
2023-02-28T02:57:30.153Z,9.63
2023-02-28T03:00:21.858Z,8.90
2023-02-28T03:03:12.897Z,9.07
2023-02-28T03:06:01.832Z,9.18
2023-02-28T03:08:48.880Z,9.65
2023-02-28T03:11:38.860Z,9.70
2023-02-28T03:14:28.768Z,10.00
2023-02-28T03:17:46.745Z,9.10
2023-02-28T03:20:46.434Z,9.52
2023-02-28T03:23:43.748Z,9.77
2023-02-28T03:26:32.430Z,10.10
2023-02-28T03:29:28.903Z,9.27
2023-02-28T03:32:22.678Z,9.35
2023-02-28T03:35:23.913Z,9.30
2023-02-28T03:38:55.595Z,9.75
2023-02-28T03:42:00.987Z,9.65
2023-02-28T03:44:55.924Z,11.20
2023-02-28T03:47:56.705Z,9.93
2023-02-28T03:50:47.117Z,10.05
2023-02-28T03:53:38.758Z,10.60
2023-02-28T03:56:34.870Z,10.05
2023-02-28T03:59:29.715Z,10.25
2023-02-28T04:02:16.831Z,10.27
2023-02-28T04:05:04.151Z,10.02
2023-02-28T04:07:51.225Z,8.65
2023-02-28T04:10:39.058Z,10.23
2023-02-28T04:13:26.120Z,9.95
2023-02-28T04:16:18.796Z,9.25
2023-02-28T04:19:13.634Z,9.95
2023-02-28T04:22:00.600Z,9.85
2023-02-28T04:24:47.605Z,10.27
2023-02-28T04:27:35.143Z,9.77
2023-02-28T04:30:22.249Z,9.52
2023-02-28T04:33:09.287Z,9.93
2023-02-28T04:36:06.192Z,9.82
2023-02-28T04:38:53.650Z,10.10
2023-02-28T04:41:40.759Z,11.00
2023-02-28T04:44:28.132Z,9.35
2023-02-28T04:47:15.226Z,11.20
2023-02-28T04:50:02.267Z,10.05
2023-02-28T04:52:49.322Z,10.07
2023-02-28T04:55:36.321Z,9.73
2023-02-28T04:58:26.233Z,9.95
2023-02-28T05:01:34.155Z,10.80
2023-02-28T05:04:21.186Z,9.77
2023-02-28T05:07:08.279Z,9.27
2023-02-28T05:09:55.336Z,10.48
2023-02-28T05:12:42.371Z,9.95
2023-02-28T05:15:29.489Z,10.30
2023-02-28T05:18:16.481Z,10.50
2023-02-28T05:21:04.257Z,9.90
2023-02-28T05:23:51.783Z,10.35
2023-02-28T05:26:42.479Z,10.25
2023-02-28T05:29:29.468Z,10.05
2023-02-28T05:32:16.748Z,9.40
2023-02-28T05:35:04.630Z,9.63
2023-02-28T05:37:51.981Z,10.30
2023-02-28T05:40:44.914Z,10.40
2023-02-28T05:43:31.978Z,10.38
2023-02-28T05:46:19.104Z,10.23
2023-02-28T05:49:06.454Z,11.50
2023-02-28T05:51:53.639Z,10.43
2023-02-28T05:54:40.702Z,10.50
2023-02-28T05:57:27.717Z,10.63
2023-02-28T06:00:16.806Z,10.07
2023-02-28T06:03:03.950Z,9.85
2023-02-28T06:05:51.613Z,9.88
2023-02-28T06:08:38.647Z,10.45
2023-02-28T06:11:29.269Z,9.65
2023-02-28T06:14:18.905Z,10.68
2023-02-28T06:17:06.243Z,9.80
2023-02-28T06:19:53.299Z,9.55
2023-02-28T06:22:40.852Z,10.32
2023-02-28T06:25:28.951Z,9.35
2023-02-28T06:28:16.160Z,8.77
2023-02-28T06:31:15.426Z,9.23
2023-02-28T06:34:02.532Z,9.63
2023-02-28T06:36:52.267Z,9.52
2023-02-28T06:39:39.402Z,9.70
2023-02-28T06:42:29.920Z,9.13
2023-02-28T06:45:16.996Z,9.20
2023-02-28T06:48:04.122Z,10.00
2023-02-28T06:50:51.684Z,8.93
2023-02-28T06:53:39.675Z,9.80
2023-02-28T06:56:26.784Z,10.07
2023-02-28T06:59:14.290Z,9.60
2023-02-28T07:02:01.433Z,9.48
2023-02-28T07:04:48.610Z,9.10
2023-02-28T07:07:37.441Z,9.80
2023-02-28T07:10:24.492Z,9.88
2023-02-28T07:13:11.703Z,9.93
2023-02-28T07:16:04.860Z,10.23
2023-02-28T07:18:54.287Z,10.40
2023-02-28T07:21:41.410Z,9.48
2023-02-28T07:24:29.476Z,9.35
2023-02-28T07:27:24.754Z,9.95
2023-02-28T07:30:13.231Z,9.75
2023-02-28T07:33:00.434Z,9.43
2023-02-28T07:35:47.612Z,9.15
2023-02-28T07:38:36.384Z,9.18
2023-02-28T07:41:25.829Z,8.70
2023-02-28T07:44:13.302Z,9.48
2023-02-28T07:47:00.649Z,9.23
2023-02-28T07:49:47.781Z,8.65
2023-02-28T07:52:34.867Z,8.82
2023-02-28T07:55:21.933Z,9.35
2023-02-28T07:58:09.066Z,9.43
2023-02-28T08:00:56.869Z,8.75
2023-02-28T08:03:43.874Z,9.48
2023-02-28T08:06:30.965Z,8.98
2023-02-28T08:09:18.042Z,9.10
2023-02-28T08:12:05.300Z,9.85
2023-02-28T08:14:52.385Z,10.07
2023-02-28T08:17:39.902Z,9.50
2023-02-28T08:20:28.119Z,9.25
2023-02-28T08:23:15.614Z,10.05
2023-02-28T08:26:03.295Z,9.82
2023-02-28T08:28:50.670Z,9.30
2023-02-28T08:31:37.725Z,9.27
2023-02-28T08:34:24.896Z,9.23
2023-02-28T08:37:12.361Z,9.38
2023-02-28T08:39:59.564Z,8.65
2023-02-28T08:42:47.219Z,9.07
2023-02-28T08:45:34.332Z,8.98
2023-02-28T08:48:21.420Z,9.63
2023-02-28T08:51:11.355Z,9.13
2023-02-28T08:54:01.893Z,9.85
2023-02-28T08:56:48.980Z,9.38
2023-02-28T08:59:36.079Z,10.27
2023-02-28T09:02:23.282Z,9.52
2023-02-28T09:05:10.357Z,9.25
2023-02-28T09:07:57.494Z,9.45
2023-02-28T09:10:44.534Z,9.70
2023-02-28T09:13:33.356Z,10.32
2023-02-28T09:16:20.789Z,9.63
2023-02-28T09:19:08.085Z,9.68
2023-02-28T09:21:55.150Z,9.32
2023-02-28T09:24:42.385Z,9.40
2023-02-28T09:27:29.521Z,9.55
2023-02-28T09:30:17.365Z,8.77
2023-02-28T09:33:04.864Z,10.55
2023-02-28T09:35:58.693Z,9.68
2023-02-28T09:38:48.127Z,9.70
2023-02-28T09:41:51.379Z,9.73
2023-02-28T09:44:45.393Z,9.77
2023-02-28T09:47:37.807Z,9.73
2023-02-28T09:50:27.854Z,9.50
2023-02-28T09:53:24.891Z,10.20
2023-02-28T09:56:21.203Z,9.77
2023-02-28T09:59:46.651Z,9.77
2023-02-28T10:02:39.342Z,9.93
2023-02-28T10:05:37.237Z,10.20
2023-02-28T10:08:30.252Z,9.15
2023-02-28T10:11:19.429Z,10.35
2023-02-28T10:14:12.527Z,9.77
2023-02-28T10:17:06.580Z,10.57
2023-02-28T10:19:59.985Z,10.13
2023-02-28T10:23:11.642Z,11.40
2023-02-28T10:26:06.856Z,10.60
2023-02-28T10:28:54.421Z,10.45
2023-02-28T10:31:41.956Z,10.60
2023-02-28T10:34:29.306Z,11.05
2023-02-28T10:37:16.954Z,10.30
2023-02-28T10:40:06.912Z,10.68
2023-02-28T10:43:19.547Z,11.18
2023-02-28T10:46:26.950Z,10.38
2023-02-28T10:49:22.257Z,11.02
2023-02-28T10:52:10.894Z,11.45
2023-02-28T10:55:26.284Z,10.80
2023-02-28T10:58:24.652Z,11.38
2023-02-28T11:01:39.514Z,11.68
2023-02-28T11:04:30.592Z,11.88
2023-02-28T11:07:23.147Z,11.23
2023-02-28T11:10:22.307Z,10.65
2023-02-28T11:13:21.576Z,12.35
2023-02-28T11:16:12.085Z,10.77
2023-02-28T11:19:00.965Z,11.32
2023-02-28T11:21:55.829Z,10.70
2023-02-28T11:24:47.015Z,11.25
2023-02-28T11:27:34.919Z,11.07
2023-02-28T11:30:36.740Z,11.43
2023-02-28T11:33:29.974Z,11.93
2023-02-28T11:36:17.499Z,11.73
2023-02-28T11:39:13.569Z,11.05
2023-02-28T11:42:45.541Z,11.40
2023-02-28T11:45:44.027Z,11.57
2023-02-28T11:49:03.626Z,11.70
2023-02-28T11:52:04.188Z,11.60
2023-02-28T11:55:18.684Z,10.25
2023-02-28T11:58:21.041Z,10.65
2023-02-28T12:01:18.894Z,11.27
2023-02-28T12:04:41.408Z,11.80
2023-02-28T12:07:52.869Z,11.48
2023-02-28T12:10:59.521Z,10.88
2023-02-28T12:13:59.642Z,11.32
2023-02-28T12:17:10.147Z,11.02
2023-02-28T12:20:18.066Z,10.93
2023-02-28T12:23:23.312Z,11.13
2023-02-28T12:26:25.729Z,11.10
2023-02-28T12:29:17.255Z,11.32
2023-02-28T12:32:14.828Z,10.95
2023-02-28T12:35:16.132Z,11.35
2023-02-28T12:38:35.854Z,11.75
2023-02-28T12:41:54.775Z,10.45
2023-02-28T12:44:53.494Z,11.25
2023-02-28T12:47:44.284Z,11.60
2023-02-28T12:50:32.892Z,10.18
2023-02-28T12:53:29.882Z,11.25
2023-02-28T12:56:54.956Z,10.38
2023-02-28T12:59:52.759Z,10.45
2023-02-28T13:02:53.760Z,11.05
2023-02-28T13:06:07.776Z,9.70
2023-02-28T13:09:03.567Z,9.75
2023-02-28T13:11:53.684Z,10.30
2023-02-28T13:14:41.046Z,9.40
2023-02-28T13:17:28.260Z,10.35
2023-02-28T13:20:25.124Z,10.38
2023-02-28T13:23:53.485Z,9.38
2023-02-28T13:26:40.461Z,9.85
2023-02-28T13:29:35.265Z,10.02
2023-02-28T13:32:37.739Z,10.15
2023-02-28T13:35:43.964Z,10.15
2023-02-28T13:38:41.724Z,9.95
2023-02-28T13:41:32.034Z,10.13
2023-02-28T13:44:27.889Z,10.13
2023-02-28T13:47:23.099Z,9.38
2023-02-28T13:50:30.446Z,10.13
2023-02-28T13:53:17.560Z,10.27
2023-02-28T13:56:10.186Z,9.48
2023-02-28T13:59:14.555Z,9.70
2023-02-28T14:02:04.535Z,9.65
2023-02-28T14:05:11.652Z,10.60
2023-02-28T14:08:00.809Z,9.80
2023-02-28T14:10:49.095Z,9.53
2023-02-28T14:13:48.321Z,10.13
2023-02-28T14:16:45.931Z,10.75
2023-02-28T14:19:35.413Z,10.38
2023-02-28T14:22:52.631Z,11.48
2023-02-28T14:26:11.713Z,10.15
2023-02-28T14:29:32.546Z,10.43
2023-02-28T14:32:47.778Z,10.55
2023-02-28T14:35:59.435Z,9.77
2023-02-28T14:38:53.102Z,9.77
2023-02-28T14:41:42.237Z,9.10
2023-02-28T14:44:29.603Z,10.57
2023-02-28T14:47:17.516Z,10.40
2023-02-28T14:50:06.131Z,10.18
2023-02-28T14:52:56.289Z,10.20
2023-02-28T14:58:34.764Z,9.70
2023-02-28T15:01:25.194Z,10.48
2023-02-28T15:04:23.681Z,9.38
2023-02-28T15:07:18.313Z,10.00
2023-02-28T15:10:10.765Z,9.75
2023-02-28T15:13:02.873Z,9.55
2023-02-28T15:16:03.908Z,9.45
2023-02-28T15:18:55.424Z,9.35
2023-02-28T15:21:46.908Z,8.55
2023-02-28T15:24:41.672Z,9.07
2023-02-28T15:27:33.478Z,9.32
2023-02-28T15:30:32.203Z,9.50
2023-02-28T15:33:22.797Z,8.52
2023-02-28T15:36:18.651Z,8.85
2023-02-28T15:39:24.326Z,9.23
2023-02-28T15:42:31.003Z,8.35
2023-02-28T15:45:39.616Z,8.57
2023-02-28T15:48:38.957Z,8.43
2023-02-28T15:51:37.318Z,9.17
2023-02-28T15:54:28.610Z,9.40
2023-02-28T15:57:30.589Z,8.23
2023-02-28T16:00:22.398Z,8.38
2023-02-28T16:03:36.139Z,8.63
2023-02-28T16:06:32.112Z,8.38
2023-02-28T16:09:19.454Z,8.85
2023-02-28T16:12:07.084Z,9.02
2023-02-28T16:14:56.508Z,9.07
2023-02-28T16:17:43.789Z,10.10
2023-02-28T16:20:32.328Z,9.80
2023-02-28T16:23:19.622Z,9.82
2023-02-28T16:26:11.328Z,10.30
2023-02-28T16:28:58.757Z,10.00
2023-02-28T16:31:46.212Z,10.00
2023-02-28T16:34:33.497Z,9.25
2023-02-28T16:37:24.888Z,10.93
2023-02-28T16:40:22.487Z,10.43
2023-02-28T16:43:17.622Z,10.32
2023-02-28T16:46:05.044Z,11.35
2023-02-28T16:48:52.723Z,11.07
2023-02-28T16:51:40.682Z,10.50
2023-02-28T16:54:28.048Z,11.00
2023-02-28T16:57:24.829Z,10.82
2023-02-28T17:00:14.296Z,10.63
2023-02-28T17:03:04.599Z,10.77
2023-02-28T17:05:53.397Z,10.90
2023-02-28T17:08:40.478Z,11.20
2023-02-28T17:11:28.525Z,10.70
2023-02-28T17:14:16.585Z,10.38
2023-02-28T17:17:06.271Z,10.57
2023-02-28T17:19:53.487Z,10.65
2023-02-28T17:22:40.817Z,10.20
2023-02-28T17:25:28.292Z,9.02
2023-02-28T17:28:17.602Z,9.50
2023-02-28T17:31:05.126Z,10.50
2023-02-28T17:33:54.316Z,13.25
2023-02-28T17:36:42.683Z,11.17
2023-02-28T17:39:30.040Z,10.38
2023-02-28T17:42:20.307Z,11.27
2023-02-28T17:45:11.743Z,12.70
2023-02-28T17:48:00.289Z,9.52
2023-02-28T17:50:56.968Z,10.00
2023-02-28T17:53:45.346Z,10.00
2023-02-28T17:56:35.040Z,11.07
2023-02-28T17:59:22.336Z,10.75
2023-02-28T18:02:13.774Z,9.45
2023-02-28T18:05:04.522Z,9.27
2023-02-28T18:07:52.747Z,9.48
2023-02-28T18:10:40.720Z,10.00
2023-02-28T18:13:28.993Z,10.35
2023-02-28T18:16:18.190Z,10.50
2023-02-28T18:19:07.588Z,10.17
2023-02-28T18:21:55.309Z,10.80
2023-02-28T18:24:43.177Z,10.40
2023-02-28T18:27:32.597Z,10.43
2023-02-28T18:30:23.514Z,10.90
2023-02-28T18:33:11.483Z,9.95
2023-02-28T18:35:59.033Z,11.30
2023-02-28T18:38:47.180Z,11.15
2023-02-28T18:41:35.905Z,10.63
2023-02-28T18:44:26.464Z,10.52
2023-02-28T18:47:14.786Z,10.00
2023-02-28T18:50:02.927Z,10.68
2023-02-28T18:52:51.942Z,10.85
2023-02-28T18:55:39.934Z,10.25
2023-02-28T18:58:28.198Z,10.40
2023-02-28T19:01:35.912Z,10.00
2023-02-28T19:04:24.712Z,9.07
2023-02-28T19:07:13.032Z,9.77
2023-02-28T19:10:00.930Z,10.07
2023-02-28T19:12:49.239Z,10.85
2023-02-28T19:15:38.668Z,9.70
2023-02-28T19:18:30.340Z,16.20
2023-02-28T19:21:20.114Z,11.30
2023-02-28T19:24:09.471Z,10.23
2023-02-28T19:26:57.540Z,11.45
2023-02-28T19:29:48.215Z,9.73
2023-02-28T19:32:36.431Z,10.65
2023-02-28T19:35:24.770Z,9.68
2023-02-28T19:38:12.836Z,9.25
2023-02-28T19:41:03.058Z,10.98
2023-02-28T19:43:53.351Z,11.13
